createdAt,value
2019-03-13T00:03:33.676Z,11.40
2019-03-13T00:06:07.048Z,11.40
2019-03-13T00:08:37.276Z,11.20
2019-03-13T00:11:07.585Z,11.20
2019-03-13T00:13:37.889Z,11.20
2019-03-13T00:16:09.812Z,11.10
2019-03-13T00:18:40.113Z,11.00
2019-03-13T00:21:10.405Z,10.90
2019-03-13T00:23:40.849Z,10.80
2019-03-13T00:26:11.176Z,10.80
2019-03-13T00:28:41.577Z,10.50
2019-03-13T00:31:11.896Z,10.40
2019-03-13T00:33:42.197Z,10.40
2019-03-13T00:36:12.438Z,10.30
2019-03-13T00:38:42.772Z,10.10
2019-03-13T00:41:13.134Z,10.10
2019-03-13T00:43:43.485Z,10.00
2019-03-13T00:46:13.758Z,9.90
2019-03-13T00:48:44.045Z,9.90
2019-03-13T00:51:14.329Z,9.80
2019-03-13T00:53:44.649Z,9.70
2019-03-13T00:56:14.921Z,9.60
2019-03-13T00:58:45.222Z,9.50
2019-03-13T01:01:37.229Z,9.50
2019-03-13T01:04:15.484Z,9.40
2019-03-13T01:06:49.065Z,9.20
2019-03-13T01:09:19.382Z,9.20
2019-03-13T01:11:49.675Z,9.30
2019-03-13T01:14:20.029Z,9.20
2019-03-13T01:16:50.321Z,9.10
2019-03-13T01:19:20.620Z,9.00
2019-03-13T01:21:50.882Z,9.00
2019-03-13T01:24:21.265Z,9.00
2019-03-13T01:26:51.557Z,9.00
2019-03-13T01:29:21.794Z,9.00
2019-03-13T01:32:19.814Z,9.00
2019-03-13T01:34:58.109Z,9.10
2019-03-13T01:37:28.381Z,9.00
2019-03-13T01:39:58.670Z,9.10
2019-03-13T01:42:28.987Z,9.00
2019-03-13T01:44:59.194Z,9.00
2019-03-13T01:47:29.484Z,9.00
2019-03-13T01:49:59.756Z,8.90
2019-03-13T01:52:32.246Z,8.70
2019-03-13T01:55:01.974Z,8.70
2019-03-13T01:57:32.292Z,8.70
2019-03-13T02:00:02.620Z,8.60
2019-03-13T02:02:32.943Z,8.80
2019-03-13T02:05:03.220Z,8.60
2019-03-13T02:07:33.483Z,8.80
2019-03-13T02:10:03.976Z,8.80
2019-03-13T02:12:34.273Z,8.80
2019-03-13T02:15:05.037Z,8.70
2019-03-13T02:17:35.317Z,8.60
2019-03-13T02:20:06.194Z,8.50
2019-03-13T02:22:36.488Z,8.50
2019-03-13T02:25:07.098Z,8.40
2019-03-13T02:27:37.394Z,8.40
2019-03-13T02:30:08.832Z,8.50
2019-03-13T02:32:39.865Z,8.60
2019-03-13T02:35:10.219Z,8.70
2019-03-13T02:37:40.413Z,8.60
2019-03-13T02:40:11.059Z,8.50
2019-03-13T02:42:41.326Z,8.30
2019-03-13T02:45:11.705Z,8.40
2019-03-13T02:47:41.940Z,8.40
2019-03-13T02:50:12.334Z,8.30
2019-03-13T02:52:42.689Z,8.10
2019-03-13T02:55:13.416Z,8.10
2019-03-13T02:57:43.813Z,8.20
2019-03-13T03:00:15.980Z,8.10
2019-03-13T03:02:49.276Z,8.30
2019-03-13T03:05:19.571Z,8.30
2019-03-13T03:07:49.901Z,8.20
2019-03-13T03:10:20.219Z,8.20
2019-03-13T03:12:50.596Z,8.30
2019-03-13T03:15:20.875Z,8.20
2019-03-13T03:17:51.141Z,8.10
2019-03-13T03:20:21.500Z,8.00
2019-03-13T03:22:51.793Z,7.90
2019-03-13T03:25:22.083Z,8.00
2019-03-13T03:27:52.345Z,7.90
2019-03-13T03:30:23.131Z,7.90
2019-03-13T03:32:53.486Z,7.90
2019-03-13T03:35:23.763Z,8.00
2019-03-13T03:37:54.111Z,8.00
2019-03-13T03:40:24.339Z,7.90
2019-03-13T03:42:54.613Z,8.00
2019-03-13T03:45:24.923Z,7.80
2019-03-13T03:47:55.212Z,7.90
2019-03-13T03:50:25.485Z,7.90
2019-03-13T03:52:55.757Z,7.90
2019-03-13T03:55:26.104Z,7.90
2019-03-13T03:57:56.358Z,8.00
2019-03-13T04:00:27.813Z,8.10
2019-03-13T04:02:58.115Z,8.10
2019-03-13T04:05:28.618Z,8.00
2019-03-13T04:07:58.894Z,8.00
2019-03-13T04:10:29.183Z,8.00
2019-03-13T04:12:59.462Z,7.80
2019-03-13T04:15:30.634Z,7.80
2019-03-13T04:18:00.964Z,7.80
2019-03-13T04:20:31.293Z,7.70
2019-03-13T04:23:01.602Z,7.50
2019-03-13T04:25:35.798Z,7.70
2019-03-13T04:28:06.744Z,7.50
2019-03-13T04:30:37.121Z,7.70
2019-03-13T04:33:07.388Z,7.70
2019-03-13T04:35:37.661Z,7.60
2019-03-13T04:38:07.967Z,7.70
2019-03-13T04:40:38.293Z,7.70
2019-03-13T04:43:08.593Z,7.70
2019-03-13T04:45:38.821Z,7.60
2019-03-13T04:48:09.129Z,7.50
2019-03-13T04:50:39.372Z,7.50
2019-03-13T04:53:09.596Z,7.40
2019-03-13T04:55:39.934Z,7.50
2019-03-13T04:58:10.226Z,7.60
2019-03-13T05:00:40.597Z,7.50
2019-03-13T05:03:10.888Z,7.60
2019-03-13T05:05:45.465Z,7.70
2019-03-13T05:08:45.314Z,7.80
2019-03-13T05:11:14.093Z,7.60
2019-03-13T05:13:44.335Z,7.60
2019-03-13T05:16:14.551Z,7.70
2019-03-13T05:18:44.802Z,7.80
2019-03-13T05:21:15.074Z,7.80
2019-03-13T05:23:45.360Z,7.70
2019-03-13T05:26:15.690Z,7.80
2019-03-13T05:28:45.991Z,7.60
2019-03-13T05:31:16.301Z,7.70
2019-03-13T05:33:46.565Z,7.60
2019-03-13T05:36:17.248Z,7.70
2019-03-13T05:38:47.572Z,7.60
2019-03-13T05:41:17.905Z,7.60
2019-03-13T05:43:48.136Z,7.60
2019-03-13T05:46:18.384Z,7.50
2019-03-13T05:48:48.763Z,7.60
2019-03-13T05:51:19.129Z,7.50
2019-03-13T05:53:49.343Z,7.60
2019-03-13T05:56:19.593Z,7.60
2019-03-13T05:58:49.804Z,7.60
2019-03-13T06:01:20.115Z,7.60
2019-03-13T06:03:50.354Z,7.60
2019-03-13T06:06:20.618Z,7.40
2019-03-13T06:08:50.802Z,7.40
2019-03-13T06:11:21.093Z,7.40
2019-03-13T06:13:51.365Z,7.30
2019-03-13T06:16:21.709Z,7.30
2019-03-13T06:18:53.097Z,7.30
2019-03-13T06:21:23.515Z,7.40
2019-03-13T06:23:53.718Z,7.30
2019-03-13T06:26:23.937Z,7.30
2019-03-13T06:28:54.236Z,7.30
2019-03-13T06:31:24.577Z,7.30
2019-03-13T06:33:54.881Z,7.20
2019-03-13T06:36:25.182Z,7.50
2019-03-13T06:38:55.460Z,7.50
2019-03-13T06:41:25.805Z,7.70
2019-03-13T06:43:56.005Z,7.70
2019-03-13T06:46:26.260Z,7.60
2019-03-13T06:48:56.469Z,7.60
2019-03-13T06:51:26.821Z,7.60
2019-03-13T06:53:57.113Z,7.60
2019-03-13T06:56:27.393Z,7.70
2019-03-13T06:59:03.200Z,7.70
2019-03-13T07:01:55.233Z,7.70
2019-03-13T07:04:43.137Z,7.80
2019-03-13T07:07:38.269Z,7.90
2019-03-13T07:10:26.982Z,7.60
2019-03-13T07:13:31.162Z,7.50
2019-03-13T07:16:26.306Z,7.80
2019-03-13T07:19:15.521Z,8.30
2019-03-13T07:22:10.648Z,8.20
2019-03-13T07:24:47.005Z,8.50
2019-03-13T07:27:23.213Z,8.50
2019-03-13T07:30:21.281Z,8.60
2019-03-13T07:33:03.699Z,8.70
2019-03-13T07:35:51.738Z,8.90
2019-03-13T07:38:40.550Z,8.60
2019-03-13T07:41:29.847Z,8.60
2019-03-13T07:44:25.089Z,8.70
2019-03-13T07:47:02.207Z,8.90
2019-03-13T07:49:44.786Z,8.90
2019-03-13T07:52:48.937Z,8.60
2019-03-13T07:55:50.447Z,8.60
2019-03-13T07:58:25.198Z,8.60
2019-03-13T08:01:33.495Z,8.50
2019-03-13T08:04:13.703Z,8.30
2019-03-13T08:06:51.943Z,8.40
2019-03-13T08:09:39.563Z,8.40
2019-03-13T08:12:28.802Z,8.50
2019-03-13T08:15:11.566Z,8.80
2019-03-13T08:17:57.590Z,8.90
2019-03-13T08:20:37.280Z,8.90
2019-03-13T08:23:19.870Z,8.80
2019-03-13T08:26:07.933Z,8.70
2019-03-13T08:29:00.005Z,9.00
2019-03-13T08:31:42.124Z,9.10
2019-03-13T08:34:37.182Z,9.20
2019-03-13T08:37:21.710Z,8.90
2019-03-13T08:40:07.192Z,9.20
2019-03-13T08:42:59.486Z,9.40
2019-03-13T08:46:00.989Z,9.50
2019-03-13T08:48:53.149Z,9.30
2019-03-13T08:51:48.463Z,9.30
2019-03-13T08:54:33.686Z,9.30
2019-03-13T08:57:22.954Z,9.20
2019-03-13T09:00:19.236Z,9.00
2019-03-13T09:03:05.755Z,8.90
2019-03-13T09:05:46.625Z,8.90
2019-03-13T09:08:34.258Z,8.90
2019-03-13T09:11:25.694Z,9.10
2019-03-13T09:14:21.111Z,9.30
2019-03-13T09:17:01.967Z,9.40
2019-03-13T09:19:38.936Z,9.60
2019-03-13T09:22:16.121Z,9.80
2019-03-13T09:25:11.799Z,10.10
2019-03-13T09:27:54.952Z,10.30
2019-03-13T09:30:47.029Z,10.20
2019-03-13T09:33:22.348Z,10.50
2019-03-13T09:36:18.948Z,10.60
2019-03-13T09:39:08.249Z,10.50
2019-03-13T09:41:45.229Z,10.30
2019-03-13T09:44:40.290Z,10.30
2019-03-13T09:47:38.328Z,10.30
2019-03-13T09:50:24.372Z,10.40
2019-03-13T09:53:22.429Z,10.50
2019-03-13T09:56:14.683Z,10.80
2019-03-13T09:59:24.050Z,10.80
2019-03-13T10:02:22.478Z,10.80
2019-03-13T10:05:10.373Z,10.70
2019-03-13T10:07:54.605Z,10.50
2019-03-13T10:10:46.825Z,10.40
2019-03-13T10:13:28.551Z,10.40
2019-03-13T10:16:06.246Z,10.60
2019-03-13T10:18:43.621Z,10.60
2019-03-13T10:21:31.456Z,10.70
2019-03-13T10:24:21.905Z,10.80
2019-03-13T10:26:59.968Z,11.00
2019-03-13T10:29:52.153Z,11.50
2019-03-13T10:32:50.257Z,11.70
2019-03-13T10:35:30.497Z,11.70
2019-03-13T10:38:28.934Z,11.30
2019-03-13T10:41:18.180Z,10.80
2019-03-13T10:43:54.871Z,10.90
2019-03-13T10:46:42.877Z,11.00
2019-03-13T10:49:38.361Z,10.80
2019-03-13T10:52:30.808Z,10.60
2019-03-13T10:55:20.040Z,10.60
2019-03-13T10:58:12.311Z,10.50
2019-03-13T11:01:10.788Z,10.40
2019-03-13T11:04:03.085Z,10.60
2019-03-13T11:06:58.125Z,10.80
2019-03-13T11:10:05.321Z,11.00
2019-03-13T11:13:06.666Z,11.10
2019-03-13T11:16:01.846Z,11.10
2019-03-13T11:18:49.592Z,10.90
2019-03-13T11:21:42.011Z,10.70
2019-03-13T11:24:26.735Z,10.80
2019-03-13T11:27:12.396Z,10.80
2019-03-13T11:30:00.610Z,10.70
2019-03-13T11:32:48.457Z,10.30
2019-03-13T11:35:34.196Z,10.00
2019-03-13T11:38:26.503Z,10.10
2019-03-13T11:41:02.385Z,10.20
2019-03-13T11:43:47.552Z,10.10
2019-03-13T11:46:27.115Z,10.10
2019-03-13T11:49:23.503Z,10.50
2019-03-13T11:52:03.781Z,10.60
2019-03-13T11:54:50.635Z,10.20
2019-03-13T11:57:42.933Z,10.30
2019-03-13T12:00:45.597Z,10.30
2019-03-13T12:03:24.659Z,10.20
2019-03-13T12:06:16.932Z,10.10
2019-03-13T12:08:54.391Z,10.30
2019-03-13T12:11:58.876Z,10.20
2019-03-13T12:14:51.218Z,10.40
2019-03-13T12:17:38.897Z,10.50
2019-03-13T12:20:16.375Z,10.70
2019-03-13T12:22:56.932Z,10.80
2019-03-13T12:25:34.040Z,10.90
2019-03-13T12:28:26.395Z,11.20
2019-03-13T12:31:21.998Z,11.60
2019-03-13T12:34:03.481Z,11.50
2019-03-13T12:36:52.365Z,11.40
2019-03-13T12:39:38.654Z,11.30
2019-03-13T12:42:26.543Z,11.20
2019-03-13T12:45:21.862Z,11.10
2019-03-13T12:48:17.047Z,10.90
2019-03-13T12:50:55.120Z,11.00
2019-03-13T12:53:48.934Z,11.10
2019-03-13T12:56:38.182Z,11.40
2019-03-13T12:59:22.141Z,11.70
2019-03-13T13:02:06.341Z,11.80
2019-03-13T13:04:58.355Z,11.90
2019-03-13T13:07:49.158Z,11.50
2019-03-13T13:10:38.436Z,11.00
2019-03-13T13:13:34.432Z,10.70
2019-03-13T13:16:31.309Z,10.60
2019-03-13T13:19:01.576Z,10.20
2019-03-13T13:21:31.944Z,9.90
2019-03-13T13:24:02.190Z,9.80
2019-03-13T13:26:32.528Z,9.60
2019-03-13T13:29:02.831Z,9.20
2019-03-13T13:31:33.187Z,9.00
2019-03-13T13:34:03.424Z,9.10
2019-03-13T13:36:33.752Z,9.40
2019-03-13T13:39:06.283Z,9.50
2019-03-13T13:41:36.642Z,9.60
2019-03-13T13:44:06.915Z,9.60
2019-03-13T13:46:44.206Z,9.80
2019-03-13T13:49:13.225Z,10.00
2019-03-13T13:51:43.452Z,10.10
2019-03-13T13:54:13.739Z,10.30
2019-03-13T13:56:44.069Z,10.10
2019-03-13T13:59:14.445Z,10.10
2019-03-13T14:01:44.802Z,10.60
2019-03-13T14:04:15.149Z,10.90
2019-03-13T14:06:45.375Z,10.90
2019-03-13T14:09:15.685Z,10.80
2019-03-13T14:11:45.983Z,10.80
2019-03-13T14:14:16.240Z,10.90
2019-03-13T14:16:46.482Z,10.70
2019-03-13T14:19:16.765Z,10.60
2019-03-13T14:21:47.081Z,10.60
2019-03-13T14:24:17.624Z,10.80
2019-03-13T14:26:47.977Z,11.00
2019-03-13T14:29:18.293Z,11.00
2019-03-13T14:31:48.680Z,10.80
2019-03-13T14:34:19.070Z,10.80
2019-03-13T14:36:49.352Z,10.90
2019-03-13T14:39:19.708Z,11.10
2019-03-13T14:41:50.003Z,11.20
2019-03-13T14:44:20.349Z,11.40
2019-03-13T14:46:50.694Z,11.10
2019-03-13T14:49:21.019Z,11.10
2019-03-13T14:51:51.253Z,11.20
2019-03-13T14:54:21.603Z,11.10
2019-03-13T14:56:51.850Z,11.20
2019-03-13T14:59:22.126Z,11.20
2019-03-13T15:01:52.432Z,11.10
2019-03-13T15:04:22.764Z,10.90
2019-03-13T15:06:53.104Z,10.90
2019-03-13T15:09:23.488Z,10.90
2019-03-13T15:11:53.798Z,10.90
2019-03-13T15:14:24.120Z,10.70
2019-03-13T15:16:54.425Z,10.70
2019-03-13T15:19:24.911Z,10.80
2019-03-13T15:21:55.220Z,10.70
2019-03-13T15:24:25.560Z,10.60
2019-03-13T15:26:55.854Z,10.50
2019-03-13T15:29:26.177Z,10.60
2019-03-13T15:31:56.546Z,10.50
2019-03-13T15:34:26.781Z,10.60
2019-03-13T15:36:57.096Z,10.70
2019-03-13T15:39:27.461Z,10.70
2019-03-13T15:41:57.834Z,10.80
2019-03-13T15:44:28.120Z,10.60
2019-03-13T15:46:58.463Z,10.50
2019-03-13T15:49:31.776Z,10.50
2019-03-13T15:52:03.748Z,10.40
2019-03-13T15:54:34.139Z,10.20
2019-03-13T15:57:04.461Z,10.10
2019-03-13T15:59:34.773Z,10.00
2019-03-13T16:02:05.099Z,10.20
2019-03-13T16:04:35.445Z,10.10
2019-03-13T16:07:05.710Z,10.20
2019-03-13T16:09:39.021Z,10.20
2019-03-13T16:12:11.062Z,10.30
2019-03-13T16:14:41.408Z,10.00
2019-03-13T16:17:19.929Z,10.00
2019-03-13T16:19:50.420Z,10.00
2019-03-13T16:22:22.084Z,10.00
2019-03-13T16:24:58.186Z,9.80
2019-03-13T16:27:28.625Z,9.90
2019-03-13T16:29:58.987Z,9.80
2019-03-13T16:32:29.285Z,9.80
2019-03-13T16:34:59.938Z,9.80
2019-03-13T16:37:30.288Z,9.90
2019-03-13T16:40:01.067Z,9.80
2019-03-13T16:42:31.433Z,9.90
2019-03-13T16:45:01.815Z,9.90
2019-03-13T16:47:32.144Z,9.80
2019-03-13T16:50:02.545Z,9.90
2019-03-13T16:52:32.901Z,9.90
2019-03-13T16:55:03.216Z,9.90
2019-03-13T16:57:33.578Z,9.90
2019-03-13T17:00:04.536Z,9.60
2019-03-13T17:02:35.044Z,9.60
2019-03-13T17:05:05.849Z,9.60
2019-03-13T17:07:36.230Z,9.60
2019-03-13T17:10:07.035Z,9.50
2019-03-13T17:12:37.581Z,9.50
2019-03-13T17:15:11.056Z,9.50
2019-03-13T17:17:41.493Z,9.50
2019-03-13T17:20:14.711Z,9.50
2019-03-13T17:22:47.231Z,9.50
2019-03-13T17:25:23.613Z,9.50
2019-03-13T17:27:54.200Z,9.40
2019-03-13T17:30:27.370Z,9.40
2019-03-13T17:32:57.901Z,9.30
2019-03-13T17:35:29.202Z,9.20
2019-03-13T17:37:59.413Z,9.30
2019-03-13T17:40:29.707Z,9.40
2019-03-13T17:43:00.065Z,9.20
2019-03-13T17:45:30.407Z,9.20
2019-03-13T17:48:00.724Z,9.20
2019-03-13T17:50:31.010Z,9.20
2019-03-13T17:53:01.318Z,9.20
2019-03-13T17:55:31.695Z,9.30
2019-03-13T17:58:02.117Z,9.20
2019-03-13T18:00:38.300Z,9.20
2019-03-13T18:03:08.630Z,9.30
2019-03-13T18:05:39.952Z,9.40
2019-03-13T18:08:10.260Z,9.30
2019-03-13T18:10:40.601Z,9.20
2019-03-13T18:13:10.945Z,9.10
2019-03-13T18:15:41.283Z,9.10
2019-03-13T18:18:11.802Z,9.10
2019-03-13T18:20:42.176Z,9.00
2019-03-13T18:23:12.450Z,8.90
2019-03-13T18:25:42.818Z,9.00
2019-03-13T18:28:13.108Z,9.00
2019-03-13T18:30:43.448Z,8.90
2019-03-13T18:33:13.721Z,8.80
2019-03-13T18:35:44.044Z,8.90
2019-03-13T18:38:14.341Z,8.80
2019-03-13T18:40:44.633Z,8.90
2019-03-13T18:43:14.937Z,9.00
2019-03-13T18:45:45.276Z,8.90
2019-03-13T18:48:15.657Z,8.80
2019-03-13T18:50:46.035Z,8.80
2019-03-13T18:53:16.335Z,8.80
2019-03-13T18:55:46.692Z,8.70
2019-03-13T18:58:17.010Z,8.60
2019-03-13T19:00:47.345Z,8.50
2019-03-13T19:03:17.997Z,8.60
2019-03-13T19:05:48.329Z,8.50
2019-03-13T19:08:18.689Z,8.60
2019-03-13T19:10:49.057Z,8.60
2019-03-13T19:13:19.370Z,8.60
2019-03-13T19:15:49.720Z,8.30
2019-03-13T19:18:20.097Z,8.20
2019-03-13T19:20:50.356Z,8.20
2019-03-13T19:23:20.746Z,8.20
2019-03-13T19:25:51.162Z,8.10
2019-03-13T19:28:21.418Z,8.10
2019-03-13T19:30:51.796Z,8.00
2019-03-13T19:33:22.119Z,8.00
2019-03-13T19:35:52.462Z,8.00
2019-03-13T19:38:22.808Z,8.00
2019-03-13T19:40:53.383Z,8.00
2019-03-13T19:43:23.669Z,7.90
2019-03-13T19:45:54.083Z,7.90
2019-03-13T19:48:24.370Z,8.00
2019-03-13T19:50:56.593Z,7.90
2019-03-13T19:53:26.691Z,7.90
2019-03-13T19:55:57.113Z,7.90
2019-03-13T19:58:27.560Z,8.00
2019-03-13T20:00:57.908Z,7.90
2019-03-13T20:03:28.288Z,7.90
2019-03-13T20:05:58.591Z,7.90
2019-03-13T20:08:28.920Z,7.80
2019-03-13T20:10:59.297Z,7.80
2019-03-13T20:13:29.606Z,7.80
2019-03-13T20:15:59.974Z,7.90
2019-03-13T20:18:30.233Z,7.90
2019-03-13T20:21:00.496Z,8.00
2019-03-13T20:23:30.820Z,7.90
2019-03-13T20:26:01.160Z,7.80
2019-03-13T20:28:31.455Z,7.80
2019-03-13T20:31:01.762Z,7.90
2019-03-13T20:33:32.098Z,7.90
2019-03-13T20:36:02.421Z,8.00
2019-03-13T20:38:32.701Z,8.00
2019-03-13T20:41:03.053Z,8.00
2019-03-13T20:43:33.350Z,8.00
2019-03-13T20:46:03.600Z,7.90
2019-03-13T20:48:33.924Z,7.90
2019-03-13T20:51:04.310Z,8.00
2019-03-13T20:53:34.637Z,7.90
2019-03-13T20:56:05.040Z,7.90
2019-03-13T20:58:35.373Z,7.90
2019-03-13T21:01:05.879Z,8.00
2019-03-13T21:03:36.250Z,8.00
2019-03-13T21:06:06.591Z,8.00
2019-03-13T21:08:36.830Z,8.00
2019-03-13T21:11:07.178Z,8.10
2019-03-13T21:13:37.517Z,8.10
2019-03-13T21:16:07.956Z,8.20
2019-03-13T21:18:38.310Z,8.10
2019-03-13T21:21:08.791Z,8.10
2019-03-13T21:23:39.136Z,8.20
2019-03-13T21:26:09.476Z,8.10
2019-03-13T21:28:39.809Z,8.00
2019-03-13T21:31:10.161Z,8.00
2019-03-13T21:33:40.648Z,8.00
2019-03-13T21:36:11.033Z,7.90
2019-03-13T21:38:41.395Z,7.90
2019-03-13T21:41:11.653Z,7.80
2019-03-13T21:43:41.953Z,7.70
2019-03-13T21:46:12.332Z,7.80
2019-03-13T21:48:42.705Z,7.70
2019-03-13T21:51:13.085Z,7.60
2019-03-13T21:53:43.369Z,7.50
2019-03-13T21:56:13.678Z,7.50
2019-03-13T21:58:43.974Z,7.50
2019-03-13T22:01:19.870Z,7.50
2019-03-13T22:03:46.340Z,7.60
2019-03-13T22:06:28.482Z,7.40
2019-03-13T22:08:51.673Z,7.40
2019-03-13T22:11:23.650Z,7.20
2019-03-13T22:13:54.060Z,7.30
2019-03-13T22:16:24.286Z,7.40
2019-03-13T22:18:54.676Z,7.50
2019-03-13T22:21:24.976Z,7.60
2019-03-13T22:23:55.538Z,7.30
2019-03-13T22:26:25.953Z,7.40
2019-03-13T22:28:56.185Z,7.30
2019-03-13T22:31:26.479Z,7.50
2019-03-13T22:33:56.758Z,7.50
2019-03-13T22:36:27.080Z,7.50
2019-03-13T22:38:57.327Z,7.60
2019-03-13T22:41:27.634Z,7.60
2019-03-13T22:43:57.978Z,7.60
2019-03-13T22:46:28.372Z,7.50
2019-03-13T22:48:58.792Z,7.50
2019-03-13T22:51:31.405Z,7.50
2019-03-13T22:54:01.772Z,7.40
2019-03-13T22:56:32.094Z,7.50
2019-03-13T22:59:02.382Z,7.50
2019-03-13T23:01:32.901Z,7.50
2019-03-13T23:04:03.228Z,7.60
2019-03-13T23:06:33.484Z,7.60
2019-03-13T23:09:04.759Z,7.40
2019-03-13T23:11:35.029Z,7.50
2019-03-13T23:14:05.348Z,7.60
2019-03-13T23:16:35.675Z,7.50
2019-03-13T23:19:05.964Z,7.50
2019-03-13T23:21:36.194Z,7.60
2019-03-13T23:24:06.469Z,7.60
2019-03-13T23:26:36.682Z,7.70
2019-03-13T23:29:07.011Z,7.70
2019-03-13T23:31:37.220Z,7.50
2019-03-13T23:34:07.772Z,7.60
2019-03-13T23:36:38.093Z,7.70
2019-03-13T23:39:08.612Z,7.70
2019-03-13T23:41:38.943Z,7.70
2019-03-13T23:44:09.216Z,7.70
2019-03-13T23:46:39.472Z,7.60
2019-03-13T23:49:09.694Z,7.70
2019-03-13T23:51:39.991Z,7.70
2019-03-13T23:54:10.584Z,7.70
2019-03-13T23:56:40.850Z,7.60
2019-03-13T23:59:14.152Z,7.70
